METAR Formatted Surface Weather Observation
Issued by NWS

Current Version | Previous Version | Text Only | Print | Product List | Glossary On
Versions: 1 2 3 4 5 6 7 8 9
000
SAUS45 KPSR 231458
MTRFHU
METAR KFHU 231456Z AUTO 00000KT 10SM CLR 22/15 A3015 RMK AO2 SLP156
T02170150 50005 $



USA.gov is the U.S. government's official web portal to all federal, state and local government web resources and services.